Terminal Aerodrome Forecast
Issued by NWS Cleveland, OH

Home | Current Version | Previous Version | Graphics & Text | Print | Product List | Glossary Off
Versions: 1 2 3 4 5 6 7 8 9 10 11 12 13 14 15 16 17 18 19 20 21 22 23 24 25

000
FTUS41 KCLE 291728
TAFERI
TAF
KERI 291728Z 2918/3018 27007KT P6SM BKN100
     FM300000 16005KT P6SM -SHRA OVC100
     FM300300 13005KT 6SM -SHRA OVC050
     FM300500 13005KT 6SM -SHRA BR OVC025
     FM300900 16008KT P6SM OVC025
      TEMPO 3012/3015 P6SM OVC007
     FM301500 22010KT P6SM OVC015=

USA.gov is the U.S. government's official web portal to all federal, state and local government web resources and services.